Time;durP1;ratioP1;P1;durP2;ratioP2;P2;SDS_P1;SDS_P2;PMS_P1;PMS_P2;Temp;Humidity;BMP_temperature;BMP_pressure;BME280_temperature;BME280_humidity;BME280_pressure;Samples;Min_cycle;Max_cycle;Signal;HPM_P1;HPM_P2
2023/07/12 13:01:20;;;;;;;;;14.00;11.00;;;;;;;;5096139;27;13484;-70
2023/07/12 13:03:45;;;;;;;;;13.67;10.67;;;;;;;;5066078;28;8815;-71
2023/07/12 13:06:16;;;;;;;;;9.00;9.00;;;;;;;;5066076;28;8857;-75
2023/07/12 13:08:41;;;;;;;;;10.25;9.75;;;;;;;;5064625;28;8832;-74
2023/07/12 13:11:07;;;;;;;;;11.00;8.00;;;;;;;;5064730;28;8814;-74
2023/07/12 13:13:32;;;;;;;;;13.33;12.00;;;;;;;;5067350;28;9166;-74
2023/07/12 13:15:57;;;;;;;;;10.00;10.00;;;;;;;;5062313;28;8897;-81
2023/07/12 13:18:25;;;;;;;;;11.25;10.75;;;;;;;;5050311;28;8874;-80
2023/07/12 13:20:50;;;;;;;;;13.40;10.00;;;;;;;;5065033;28;9584;-72
2023/07/12 13:23:15;;;;;;;;;11.75;9.75;;;;;;;;5064192;28;8819;-73
2023/07/12 13:25:41;;;;;;;;;13.50;12.00;;;;;;;;5064996;28;8833;-70
2023/07/12 13:28:13;;;;;;;;;11.50;10.00;;;;;;;;5067714;28;8821;-72
2023/07/12 13:30:38;;;;;;;;;17.25;12.75;;;;;;;;5062818;28;9277;-77
2023/07/12 13:33:08;;;;;;;;;13.33;13.33;;;;;;;;5064981;28;8803;-78
2023/07/12 13:35:34;;;;;;;;;11.00;9.50;;;;;;;;5066608;28;8879;-71
2023/07/12 13:38:00;;;;;;;;;9.00;9.00;;;;;;;;5066720;28;8795;-80
2023/07/12 13:40:25;;;;;;;;;10.33;9.00;;;;;;;;5065985;28;8845;-78
2023/07/12 13:42:50;;;;;;;;;14.33;10.67;;;;;;;;5065349;28;8884;-88
2023/07/12 13:45:16;;;;;;;;;11.00;9.00;;;;;;;;5065388;28;8829;-75
2023/07/12 13:47:41;;;;;;;;;14.33;9.33;;;;;;;;5063674;28;8823;-77
2023/07/12 13:50:12;;;;;;;;;11.00;8.67;;;;;;;;5066752;28;8795;-80
2023/07/12 13:52:37;;;;;;;;;9.00;7.00;;;;;;;;5066580;28;8798;-77
2023/07/12 13:55:04;;;;;;;;;11.33;9.33;;;;;;;;5066441;28;9510;-79
2023/07/12 13:57:32;;;;;;;;;11.75;9.00;;;;;;;;5066642;28;8799;-77
2023/07/12 13:59:57;;;;;;;;;5.60;2.60;;;;;;;;5058007;28;8835;-79
2023/07/12 14:02:26;;;;;;;;;10.25;8.50;;;;;;;;5066153;28;8841;-79
2023/07/12 14:04:55;;;;;;;;;13.00;8.00;;;;;;;;5064878;28;8821;-78
2023/07/12 14:07:24;;;;;;;;;11.50;10.25;;;;;;;;5064990;28;8935;-80
2023/07/12 14:09:49;;;;;;;;;11.25;7.50;;;;;;;;5065239;28;8819;-79
2023/07/12 14:12:15;;;;;;;;;14.67;10.67;;;;;;;;5055879;28;8830;-79
2023/07/12 14:14:42;;;;;;;;;13.00;8.80;;;;;;;;5052832;28;8821;-76
2023/07/12 14:17:11;;;;;;;;;11.75;9.00;;;;;;;;4999504;28;11090;-79
2023/07/12 14:19:37;;;;;;;;;10.75;8.50;;;;;;;;4993991;28;8833;-78
2023/07/12 14:22:02;;;;;;;;;12.33;8.67;;;;;;;;4991738;28;8802;-78
2023/07/12 14:24:27;;;;;;;;;11.75;10.50;;;;;;;;4991946;28;8847;-79
2023/07/12 14:26:53;;;;;;;;;12.00;9.25;;;;;;;;4993485;28;8910;-78
2023/07/12 14:29:18;;;;;;;;;12.00;10.00;;;;;;;;4993388;28;8816;-78
2023/07/12 14:31:45;;;;;;;;;12.20;10.40;;;;;;;;4993449;28;8844;-76
2023/07/12 14:34:10;;;;;;;;;11.00;8.00;;;;;;;;4993334;28;8818;-80
2023/07/12 14:36:35;;;;;;;;;9.00;7.50;;;;;;;;4993007;28;11671;-79
2023/07/12 14:39:00;;;;;;;;;12.25;9.00;;;;;;;;4993253;28;8793;-82
2023/07/12 14:41:27;;;;;;;;;9.75;7.00;;;;;;;;4993532;28;8801;-80
2023/07/12 14:43:53;;;;;;;;;12.60;8.20;;;;;;;;4992540;28;8817;-81
2023/07/12 14:46:19;;;;;;;;;10.00;8.80;;;;;;;;4991752;28;8825;-82
2023/07/12 14:48:44;;;;;;;;;12.50;8.75;;;;;;;;4991700;28;8858;-80
2023/07/12 14:51:16;;;;;;;;;9.25;7.00;;;;;;;;4990861;28;8914;-82
2023/07/12 14:53:41;;;;;;;;;10.80;9.00;;;;;;;;4998010;28;9591;-78
2023/07/12 14:56:08;;;;;;;;;13.50;9.00;;;;;;;;5000557;28;8883;-79
2023/07/12 14:58:33;;;;;;;;;12.00;9.40;;;;;;;;5003151;28;8847;-74
2023/07/12 15:00:58;;;;;;;;;15.75;12.75;;;;;;;;5001032;28;8897;-78
2023/07/12 15:03:23;;;;;;;;;8.25;7.50;;;;;;;;4995633;28;8845;-78
2023/07/12 15:05:49;;;;;;;;;11.25;8.00;;;;;;;;4999914;28;8847;-80
2023/07/12 15:08:26;;;;;;;;;7.50;7.00;;;;;;;;5002231;28;8918;-87
2023/07/12 15:10:52;;;;;;;;;13.80;10.00;;;;;;;;4998786;28;11525;-82
2023/07/12 15:13:17;;;;;;;;;8.60;8.60;;;;;;;;5002615;28;8911;-81
2023/07/12 15:15:43;;;;;;;;;11.50;11.50;;;;;;;;5001546;28;8875;-84
2023/07/12 15:18:11;;;;;;;;;8.50;5.25;;;;;;;;5000519;28;8812;-76
2023/07/12 15:20:37;;;;;;;;;9.80;8.20;;;;;;;;5001776;28;8914;-76
2023/07/12 15:23:02;;;;;;;;;2.00;0.75;;;;;;;;5001354;28;8920;-77
2023/07/12 15:25:28;;;;;;;;;14.75;9.00;;;;;;;;5000683;28;8809;-75
2023/07/12 15:27:54;;;;;;;;;10.00;8.00;;;;;;;;5000954;28;9581;-78
2023/07/12 15:30:26;;;;;;;;;12.00;8.00;;;;;;;;5002912;28;8838;-77
2023/07/12 15:32:51;;;;;;;;;12.80;8.80;;;;;;;;4996695;28;8903;-78
2023/07/12 15:35:22;;;;;;;;;9.50;9.25;;;;;;;;5001742;28;8811;-73
2023/07/12 15:37:48;;;;;;;;;10.00;7.80;;;;;;;;5002308;28;8940;-74
2023/07/12 15:40:13;;;;;;;;;9.50;8.50;;;;;;;;5000750;28;8979;-77
2023/07/12 15:42:39;;;;;;;;;9.75;6.75;;;;;;;;5001301;28;8822;-77
2023/07/12 15:45:04;;;;;;;;;11.50;7.75;;;;;;;;5002205;28;9516;-80
2023/07/12 15:47:30;;;;;;;;;14.20;9.00;;;;;;;;5000187;28;8804;-76
2023/07/12 15:49:55;;;;;;;;;12.00;7.25;;;;;;;;5001769;28;8821;-80
2023/07/12 15:52:26;;;;;;;;;7.25;4.50;;;;;;;;5001363;28;8809;-78
2023/07/12 15:54:51;;;;;;;;;5.40;3.60;;;;;;;;4997027;28;8786;-78
2023/07/12 15:57:17;;;;;;;;;9.75;7.00;;;;;;;;5000756;28;8816;-77
2023/07/12 15:59:42;;;;;;;;;11.25;7.75;;;;;;;;4999509;28;8845;-78
2023/07/12 16:02:15;;;;;;;;;10.67;10.00;;;;;;;;5000982;28;8807;-79
2023/07/12 16:04:50;;;;;;;;;10.40;7.40;;;;;;;;5001485;28;8820;-79
2023/07/12 16:07:15;;;;;;;;;11.50;7.00;;;;;;;;4997113;28;8838;-79
2023/07/12 16:09:41;;;;;;;;;10.00;7.67;;;;;;;;4998580;28;8850;-78
2023/07/12 16:12:14;;;;;;;;;14.00;9.33;;;;;;;;4999842;28;8979;-75
2023/07/12 16:14:40;;;;;;;;;9.50;8.75;;;;;;;;5000554;28;8810;-78
2023/07/12 16:17:15;;;;;;;;;10.50;7.75;;;;;;;;5003977;28;8821;-75
2023/07/12 16:19:40;;;;;;;;;9.20;7.20;;;;;;;;4993299;28;9038;-75
2023/07/12 16:22:11;;;;;;;;;9.67;9.67;;;;;;;;4989202;28;8940;-81
2023/07/12 16:24:37;;;;;;;;;7.00;6.00;;;;;;;;4989580;28;8867;-80
2023/07/12 16:27:02;;;;;;;;;11.00;8.00;;;;;;;;4989044;28;8837;-78
2023/07/12 16:29:28;;;;;;;;;11.50;8.00;;;;;;;;4989349;28;8824;-77
2023/07/12 16:31:54;;;;;;;;;10.33;7.00;;;;;;;;4989077;28;8914;-78
2023/07/12 16:34:21;;;;;;;;;13.60;9.20;;;;;;;;4988634;28;8832;-76
2023/07/12 16:36:48;;;;;;;;;11.80;8.60;;;;;;;;4991444;28;8821;-80
2023/07/12 16:39:13;;;;;;;;;10.00;7.00;;;;;;;;4990926;28;8815;-74
2023/07/12 16:41:40;;;;;;;;;6.50;5.00;;;;;;;;4989836;28;8809;-76
2023/07/12 16:44:11;;;;;;;;;9.60;6.00;;;;;;;;4991017;28;8859;-78
2023/07/12 16:46:37;;;;;;;;;7.40;6.40;;;;;;;;4990904;28;8798;-70
2023/07/12 16:49:04;;;;;;;;;6.00;4.75;;;;;;;;4990972;28;8955;-70
2023/07/12 16:51:31;;;;;;;;;7.80;6.00;;;;;;;;4991080;28;8813;-74
2023/07/12 16:53:56;;;;;;;;;4.00;4.00;;;;;;;;4990761;28;9618;-74
2023/07/12 16:56:26;;;;;;;;;7.75;7.00;;;;;;;;4989766;28;8813;-74
2023/07/12 16:58:52;;;;;;;;;7.40;5.00;;;;;;;;4991040;28;9727;-77
2023/07/12 17:01:23;;;;;;;;;4.60;4.60;;;;;;;;4984245;28;9634;-78
2023/07/12 17:03:49;;;;;;;;;6.80;5.20;;;;;;;;4974618;28;8820;-76
2023/07/12 17:06:14;;;;;;;;;7.50;3.25;;;;;;;;4971408;28;8816;-77
2023/07/12 17:08:40;;;;;;;;;6.33;5.67;;;;;;;;4986641;28;8821;-71
2023/07/12 17:11:06;;;;;;;;;6.50;5.00;;;;;;;;4990873;28;9646;-71
2023/07/12 17:15:53;;;;;;;;;8.00;5.25;;;;;;;;5161037;27;13317;-71
2023/07/12 17:18:19;;;;;;;;;8.00;6.00;;;;;;;;5160464;27;8788;-71
2023/07/12 17:20:45;;;;;;;;;9.20;5.60;;;;;;;;5161634;27;8937;-71
2023/07/12 17:23:12;;;;;;;;;8.00;6.50;;;;;;;;5159271;27;9547;-70
2023/07/12 17:25:37;;;;;;;;;8.25;7.75;;;;;;;;5158138;27;9690;-72
2023/07/12 17:28:04;;;;;;;;;6.33;5.00;;;;;;;;5161057;27;8802;-72
2023/07/12 17:30:29;;;;;;;;;5.50;4.25;;;;;;;;5158774;27;8787;-69
2023/07/12 17:32:54;;;;;;;;;7.67;5.33;;;;;;;;5142194;27;9647;-70
2023/07/12 17:35:20;;;;;;;;;6.00;5.33;;;;;;;;5162766;27;8841;-71
2023/07/12 17:37:45;;;;;;;;;9.33;6.00;;;;;;;;5165391;27;8772;-73
2023/07/12 17:40:12;;;;;;;;;8.50;5.25;;;;;;;;5161227;27;9508;-71
2023/07/12 17:42:37;;;;;;;;;9.00;6.25;;;;;;;;5158821;27;8785;-76
2023/07/12 17:45:04;;;;;;;;;8.67;5.33;;;;;;;;5138669;27;8863;-73
2023/07/12 17:47:30;;;;;;;;;7.50;6.00;;;;;;;;5157410;27;8791;-74
2023/07/12 17:49:56;;;;;;;;;9.67;7.00;;;;;;;;5157206;27;8806;-74
2023/07/12 17:52:21;;;;;;;;;3.00;0.33;;;;;;;;5155862;27;8893;-75
2023/07/12 17:54:47;;;;;;;;;5.00;3.00;;;;;;;;5138172;27;8889;-73
2023/07/12 17:57:13;;;;;;;;;10.25;6.00;;;;;;;;5156581;27;8764;-71
2023/07/12 17:59:42;;;;;;;;;10.00;5.00;;;;;;;;5157481;27;8848;-71
2023/07/12 18:02:14;;;;;;;;;8.00;7.00;;;;;;;;5158310;27;9781;-71
2023/07/12 18:04:40;;;;;;;;;3.75;3.00;;;;;;;;5154238;27;8781;-72
2023/07/12 18:07:15;;;;;;;;;5.00;5.00;;;;;;;;5164731;27;9454;-74
2023/07/12 18:09:41;;;;;;;;;8.25;6.50;;;;;;;;5137461;27;8786;-78
2023/07/12 18:12:09;;;;;;;;;11.33;8.33;;;;;;;;5147498;27;8782;-78
2023/07/12 18:14:35;;;;;;;;;10.75;8.00;;;;;;;;5148513;27;8948;-76
2023/07/12 18:17:00;;;;;;;;;11.33;5.67;;;;;;;;5156786;27;8819;-78
2023/07/12 18:19:25;;;;;;;;;10.33;8.00;;;;;;;;5150348;27;8826;-73
2023/07/12 18:21:50;;;;;;;;;9.67;7.00;;;;;;;;5168944;27;8803;-80
2023/07/12 18:24:18;;;;;;;;;7.67;5.00;;;;;;;;5169114;27;8902;-80
2023/07/12 18:26:43;;;;;;;;;8.00;6.00;;;;;;;;5139508;27;8914;-78
2023/07/12 18:29:08;;;;;;;;;9.33;6.33;;;;;;;;5155019;27;8894;-79
2023/07/12 18:31:35;;;;;;;;;11.33;7.00;;;;;;;;5154976;27;8830;-79
2023/07/12 18:34:01;;;;;;;;;7.50;6.00;;;;;;;;5136129;27;8850;-77
2023/07/12 18:36:29;;;;;;;;;8.50;6.75;;;;;;;;5155302;27;8802;-76
2023/07/12 18:38:55;;;;;;;;;12.50;7.00;;;;;;;;5154497;27;8987;-77
2023/07/12 18:41:25;;;;;;;;;8.33;7.00;;;;;;;;5144010;27;8908;-76
2023/07/12 18:43:52;;;;;;;;;11.25;7.75;;;;;;;;5133667;27;8921;-79
2023/07/12 18:46:18;;;;;;;;;11.25;6.00;;;;;;;;5133963;27;9583;-76
2023/07/12 18:48:44;;;;;;;;;7.33;7.33;;;;;;;;5133825;27;8762;-75
2023/07/12 18:51:10;;;;;;;;;10.25;6.25;;;;;;;;5133305;27;8801;-76
2023/07/12 18:53:36;;;;;;;;;9.75;6.00;;;;;;;;5143580;27;8771;-76
2023/07/12 18:56:02;;;;;;;;;8.33;6.33;;;;;;;;5153937;27;8779;-78
2023/07/12 18:58:28;;;;;;;;;7.50;5.75;;;;;;;;5154516;27;8786;-77
2023/07/12 19:00:53;;;;;;;;;12.00;9.00;;;;;;;;5154289;27;8772;-78
2023/07/12 19:03:27;;;;;;;;;11.00;8.00;;;;;;;;5154175;27;8891;-70
2023/07/12 19:05:53;;;;;;;;;17.00;15.75;;;;;;;;5154522;27;8780;-78
2023/07/12 19:08:18;;;;;;;;;13.33;11.33;;;;;;;;5153763;27;8814;-78
2023/07/12 19:10:43;;;;;;;;;9.00;7.00;;;;;;;;5154192;27;8883;-75
2023/07/12 19:13:12;;;;;;;;;10.33;8.67;;;;;;;;5154021;27;9621;-77
2023/07/12 19:15:39;;;;;;;;;12.50;8.75;;;;;;;;5153714;27;8857;-75
2023/07/12 19:18:04;;;;;;;;;9.75;8.00;;;;;;;;5154074;27;8843;-75
2023/07/12 19:20:30;;;;;;;;;10.00;8.67;;;;;;;;5142564;27;8831;-75
2023/07/12 19:22:55;;;;;;;;;6.33;5.00;;;;;;;;5142785;27;8870;-73
2023/07/12 19:25:22;;;;;;;;;11.00;8.67;;;;;;;;5143091;27;8895;-75
2023/07/12 19:27:48;;;;;;;;;12.00;9.00;;;;;;;;5144175;27;8791;-75
2023/07/12 19:30:15;;;;;;;;;12.75;10.25;;;;;;;;5153518;27;8792;-76
2023/07/12 19:32:40;;;;;;;;;11.75;9.00;;;;;;;;5138726;27;8798;-76
2023/07/12 19:35:14;;;;;;;;;8.33;7.00;;;;;;;;5145165;27;8864;-72
2023/07/12 19:37:39;;;;;;;;;17.00;11.50;;;;;;;;5151729;27;8784;-77
2023/07/12 19:40:06;;;;;;;;;9.00;6.33;;;;;;;;5153078;27;8822;-70
2023/07/12 19:42:31;;;;;;;;;9.25;9.00;;;;;;;;5153129;27;8771;-74
2023/07/12 19:44:56;;;;;;;;;7.33;7.00;;;;;;;;5152702;27;8891;-74
2023/07/12 19:47:22;;;;;;;;;7.67;6.00;;;;;;;;5134334;27;8788;-74
2023/07/12 19:49:47;;;;;;;;;13.00;9.33;;;;;;;;5151588;27;8776;-76
2023/07/12 19:52:17;;;;;;;;;6.00;5.00;;;;;;;;5150839;27;8779;-71
2023/07/12 19:54:42;;;;;;;;;10.00;6.75;;;;;;;;5152426;27;8934;-71
